createdAt,value
2023-07-26T00:02:00.613Z,99415.16
2023-07-26T00:04:28.320Z,99424.56
2023-07-26T00:06:55.943Z,99435.03
2023-07-26T00:09:23.484Z,99449.75
2023-07-26T00:11:50.996Z,99453.16
2023-07-26T00:14:18.420Z,99449.00
2023-07-26T00:16:45.967Z,99456.03
2023-07-26T00:19:13.529Z,99466.50
2023-07-26T00:21:41.102Z,99471.59
2023-07-26T00:24:08.632Z,99467.06
2023-07-26T00:26:36.354Z,99477.50
2023-07-26T00:29:03.942Z,99491.16
2023-07-26T00:31:31.517Z,99493.59
2023-07-26T00:33:59.186Z,99497.88
2023-07-26T00:36:26.784Z,99499.31
2023-07-26T00:38:54.917Z,99499.19
2023-07-26T00:41:22.471Z,99501.31
2023-07-26T00:43:50.064Z,99502.31
2023-07-26T00:46:18.074Z,99505.22
2023-07-26T00:48:45.783Z,99498.94
2023-07-26T00:51:14.188Z,99503.22
2023-07-26T00:53:41.877Z,99499.66
2023-07-26T00:56:10.682Z,99511.09
2023-07-26T00:58:38.401Z,99505.22
2023-07-26T01:01:06.118Z,99511.94
2023-07-26T01:03:33.757Z,99507.09
2023-07-26T01:06:13.453Z,99507.38
2023-07-26T01:08:43.968Z,99503.06
2023-07-26T01:11:21.386Z,99489.50
2023-07-26T01:14:00.755Z,99491.97
2023-07-26T01:16:28.939Z,99483.53
2023-07-26T01:18:56.906Z,99488.41
2023-07-26T01:21:24.792Z,99499.38
2023-07-26T01:23:52.511Z,99510.22
2023-07-26T01:26:20.081Z,99523.91
2023-07-26T01:28:47.768Z,99520.09
2023-07-26T01:31:17.232Z,99516.78
2023-07-26T01:33:46.786Z,99525.34
2023-07-26T01:36:14.543Z,99521.94
2023-07-26T01:38:44.256Z,99526.75
2023-07-26T01:41:12.669Z,99529.78
2023-07-26T01:43:40.291Z,99531.47
2023-07-26T01:46:10.910Z,99531.19
2023-07-26T01:48:38.518Z,99538.75
2023-07-26T01:51:07.440Z,99541.19
2023-07-26T01:53:35.501Z,99527.22
2023-07-26T01:56:03.368Z,99530.19
2023-07-26T01:58:31.548Z,99533.19
2023-07-26T02:00:59.706Z,99541.84
2023-07-26T02:03:28.555Z,99538.72
2023-07-26T02:05:56.254Z,99548.84
2023-07-26T02:08:23.834Z,99546.47
2023-07-26T02:10:51.427Z,99551.03
2023-07-26T02:13:19.078Z,99548.25
2023-07-26T02:15:48.115Z,99546.13
2023-07-26T02:18:15.988Z,99554.66
2023-07-26T02:20:43.488Z,99554.41
2023-07-26T02:23:11.053Z,99575.94
2023-07-26T02:25:38.549Z,99581.75
2023-07-26T02:28:06.601Z,99601.84
2023-07-26T02:30:34.155Z,99599.63
2023-07-26T02:33:01.795Z,99600.59
2023-07-26T02:35:29.465Z,99608.06
2023-07-26T02:37:57.049Z,99603.63
2023-07-26T02:40:25.756Z,99602.31
2023-07-26T02:42:55.940Z,99616.56
2023-07-26T02:45:23.780Z,99625.81
2023-07-26T02:47:51.539Z,99628.25
2023-07-26T02:50:19.287Z,99630.06
2023-07-26T02:52:47.642Z,99638.22
2023-07-26T02:55:15.117Z,99641.06
2023-07-26T02:57:42.662Z,99640.41
2023-07-26T03:00:11.033Z,99649.81
2023-07-26T03:02:38.610Z,99654.59
2023-07-26T03:05:06.565Z,99655.94
2023-07-26T03:07:34.032Z,99659.41
2023-07-26T03:10:01.579Z,99667.53
2023-07-26T03:12:30.231Z,99665.41
2023-07-26T03:14:57.661Z,99661.97
2023-07-26T03:17:25.191Z,99667.81
2023-07-26T03:19:52.707Z,99666.47
2023-07-26T03:22:20.208Z,99678.03
2023-07-26T03:24:47.826Z,99679.16
2023-07-26T03:27:15.804Z,99684.78
2023-07-26T03:29:43.537Z,99680.09
2023-07-26T03:32:11.060Z,99674.16
2023-07-26T03:34:38.626Z,99680.09
2023-07-26T03:37:06.497Z,99679.91
2023-07-26T03:39:34.121Z,99694.41
2023-07-26T03:42:02.231Z,99697.84
2023-07-26T03:44:30.186Z,99700.81
2023-07-26T03:46:57.736Z,99694.44
2023-07-26T03:49:25.715Z,99694.16
2023-07-26T03:51:53.352Z,99698.09
2023-07-26T03:54:20.937Z,99706.34
2023-07-26T03:56:48.451Z,99707.56
2023-07-26T03:59:16.149Z,99720.63
2023-07-26T04:01:43.755Z,99716.78
2023-07-26T04:04:11.384Z,99725.44
2023-07-26T04:06:38.971Z,99725.84
2023-07-26T04:09:06.553Z,99728.88
2023-07-26T04:11:34.176Z,99734.56
2023-07-26T04:14:01.726Z,99747.09
2023-07-26T04:16:29.288Z,99746.81
2023-07-26T04:18:56.962Z,99756.03
2023-07-26T04:21:24.484Z,99754.94
2023-07-26T04:23:51.967Z,99761.81
2023-07-26T04:26:20.550Z,99763.28
2023-07-26T04:28:48.124Z,99761.44
2023-07-26T04:31:15.763Z,99767.88
2023-07-26T04:33:43.346Z,99778.56
2023-07-26T04:36:10.988Z,99769.94
2023-07-26T04:38:38.471Z,99772.63
2023-07-26T04:41:06.051Z,99781.09
2023-07-26T04:43:33.940Z,99779.63
2023-07-26T04:46:01.377Z,99782.22
2023-07-26T04:48:28.892Z,99789.88
2023-07-26T04:50:56.550Z,99792.56
2023-07-26T04:53:24.055Z,99791.53
2023-07-26T04:55:52.828Z,99802.00
2023-07-26T04:58:20.650Z,99806.06
2023-07-26T05:00:48.894Z,99809.50
2023-07-26T05:03:16.535Z,99816.25
2023-07-26T05:05:50.957Z,99809.00
2023-07-26T05:08:19.519Z,99814.88
2023-07-26T05:10:51.805Z,99820.34
2023-07-26T05:13:20.536Z,99825.75
2023-07-26T05:15:48.516Z,99831.34
2023-07-26T05:18:16.209Z,99832.66
2023-07-26T05:20:43.776Z,99841.97
2023-07-26T05:23:11.371Z,99844.13
2023-07-26T05:25:41.958Z,99838.88
2023-07-26T05:28:09.580Z,99843.19
2023-07-26T05:30:39.165Z,99847.44
2023-07-26T05:33:07.451Z,99858.75
2023-07-26T05:35:35.150Z,99853.72
2023-07-26T05:38:03.197Z,99857.00
2023-07-26T05:40:30.775Z,99854.06
2023-07-26T05:43:00.516Z,99858.47
2023-07-26T05:45:28.466Z,99852.28
2023-07-26T05:47:56.241Z,99866.69
2023-07-26T05:50:25.880Z,99860.59
2023-07-26T05:52:53.734Z,99864.59
2023-07-26T05:55:21.302Z,99863.78
2023-07-26T05:57:48.843Z,99879.13
2023-07-26T06:00:18.752Z,99867.97
2023-07-26T06:02:46.331Z,99876.22
2023-07-26T06:05:13.871Z,99874.56
2023-07-26T06:07:41.403Z,99882.16
2023-07-26T06:10:10.357Z,99889.97
2023-07-26T06:12:38.007Z,99895.19
2023-07-26T06:15:06.183Z,99894.72
2023-07-26T06:17:34.719Z,99902.34
2023-07-26T06:20:02.314Z,99907.22
2023-07-26T06:22:29.973Z,99898.84
2023-07-26T06:24:57.842Z,99898.97
2023-07-26T06:27:30.529Z,99901.69
2023-07-26T06:29:58.395Z,99899.75
2023-07-26T06:32:26.089Z,99910.75
2023-07-26T06:34:53.727Z,99906.78
2023-07-26T06:37:21.406Z,99908.09
2023-07-26T06:39:48.989Z,99910.97
2023-07-26T06:42:16.553Z,99921.16
2023-07-26T06:44:44.130Z,99923.00
2023-07-26T06:47:11.957Z,99937.28
2023-07-26T06:49:39.488Z,99936.63
2023-07-26T06:52:07.096Z,99930.47
2023-07-26T06:54:36.887Z,99931.56
2023-07-26T06:57:05.276Z,99929.72
2023-07-26T06:59:34.108Z,99938.75
2023-07-26T07:02:01.757Z,99935.31
2023-07-26T07:04:29.357Z,99940.03
2023-07-26T07:06:56.928Z,99945.47
2023-07-26T07:09:25.383Z,99937.44
2023-07-26T07:11:52.913Z,99942.88
2023-07-26T07:14:21.541Z,99947.06
2023-07-26T07:16:49.502Z,99957.34
2023-07-26T07:19:17.042Z,99952.50
2023-07-26T07:21:45.525Z,99960.50
2023-07-26T07:24:13.023Z,99959.09
2023-07-26T07:26:40.567Z,99955.09
2023-07-26T07:29:08.244Z,99965.25
2023-07-26T07:31:36.138Z,99965.66
2023-07-26T07:34:03.971Z,99967.84
2023-07-26T07:36:31.611Z,99972.25
2023-07-26T07:39:00.212Z,99961.69
2023-07-26T07:41:27.725Z,99974.97
2023-07-26T07:43:55.212Z,99979.25
2023-07-26T07:46:22.851Z,99978.81
2023-07-26T07:48:50.819Z,99982.97
2023-07-26T07:51:18.325Z,99982.25
2023-07-26T07:53:48.927Z,99992.25
2023-07-26T07:56:16.433Z,99997.38
2023-07-26T07:58:43.926Z,99996.97
2023-07-26T08:01:11.451Z,100004.44
2023-07-26T08:03:39.034Z,100000.09
2023-07-26T08:06:07.969Z,100000.22
2023-07-26T08:08:35.512Z,100007.25
2023-07-26T08:11:04.067Z,100004.97
2023-07-26T08:13:31.632Z,100001.38
2023-07-26T08:16:00.049Z,100004.38
2023-07-26T08:18:29.404Z,100013.97
2023-07-26T08:20:56.955Z,100009.03
2023-07-26T08:23:24.456Z,100007.94
2023-07-26T08:25:52.215Z,100004.97
2023-07-26T08:28:19.667Z,100003.38
2023-07-26T08:30:47.098Z,100005.19
2023-07-26T08:33:14.676Z,100008.53
2023-07-26T08:35:43.934Z,100002.84
2023-07-26T08:38:14.446Z,100004.56
2023-07-26T08:40:47.849Z,99999.88
2023-07-26T08:43:18.336Z,100001.63
2023-07-26T08:45:46.900Z,100007.00
2023-07-26T08:48:15.413Z,100003.41
2023-07-26T08:50:43.082Z,100007.53
2023-07-26T08:53:10.764Z,99994.94
2023-07-26T08:55:38.374Z,100007.75
2023-07-26T08:58:06.404Z,100014.22
2023-07-26T09:00:34.013Z,100007.06
2023-07-26T09:03:06.267Z,100008.81
2023-07-26T09:05:33.905Z,100007.19
2023-07-26T09:08:01.925Z,100015.69
2023-07-26T09:10:30.690Z,100011.50
2023-07-26T09:13:11.711Z,100017.59
2023-07-26T09:15:41.329Z,100018.22
2023-07-26T09:18:13.522Z,100017.63
2023-07-26T09:20:41.126Z,100019.75
2023-07-26T09:23:10.516Z,100008.84
2023-07-26T09:25:45.865Z,100022.00
2023-07-26T09:28:15.651Z,100028.09
2023-07-26T09:30:46.885Z,100025.78
2023-07-26T09:33:14.635Z,100016.63
2023-07-26T09:35:44.484Z,100036.00
2023-07-26T09:38:18.751Z,100023.69
2023-07-26T09:40:49.464Z,100025.94
2023-07-26T09:43:35.058Z,100029.34
2023-07-26T09:46:08.118Z,100021.84
2023-07-26T09:48:58.325Z,100027.50
2023-07-26T09:51:32.296Z,100029.84
2023-07-26T09:54:00.497Z,100022.56
2023-07-26T09:56:34.317Z,100017.56
2023-07-26T09:59:02.531Z,100022.97
2023-07-26T10:01:31.325Z,100021.56
2023-07-26T10:04:04.156Z,100021.94
2023-07-26T10:06:34.076Z,100021.97
2023-07-26T10:09:02.408Z,100024.69
2023-07-26T10:11:30.231Z,100020.94
2023-07-26T10:14:00.459Z,100015.13
2023-07-26T10:16:28.072Z,100024.72
2023-07-26T10:18:58.304Z,100022.84
2023-07-26T10:21:26.845Z,100022.13
2023-07-26T10:23:58.498Z,100022.97
2023-07-26T10:26:30.037Z,100022.63
2023-07-26T10:29:00.836Z,100027.63
2023-07-26T10:31:28.820Z,100029.69
2023-07-26T10:33:57.727Z,100025.91
2023-07-26T10:36:30.908Z,100034.47
2023-07-26T10:39:05.531Z,100028.47
2023-07-26T10:41:35.600Z,100032.56
2023-07-26T10:44:08.636Z,100034.28
2023-07-26T10:46:56.440Z,100028.78
2023-07-26T10:49:34.744Z,100031.34
2023-07-26T10:52:05.169Z,100031.03
2023-07-26T10:54:38.862Z,100025.31
2023-07-26T10:57:28.193Z,100031.00
2023-07-26T11:00:19.225Z,100035.31
2023-07-26T11:02:49.512Z,100032.91
2023-07-26T11:05:18.143Z,100029.63
2023-07-26T11:08:22.894Z,100028.28
2023-07-26T11:10:52.233Z,100019.91
2023-07-26T11:13:27.477Z,100026.03
2023-07-26T11:16:14.821Z,100026.94
2023-07-26T11:18:43.262Z,100017.50
2023-07-26T11:21:18.328Z,100018.91
2023-07-26T11:23:46.230Z,100023.00
2023-07-26T11:26:13.859Z,100016.00
2023-07-26T11:28:42.407Z,100007.41
2023-07-26T11:31:19.513Z,100012.72
2023-07-26T11:33:49.222Z,100011.31
2023-07-26T11:36:21.128Z,100004.50
2023-07-26T11:38:49.738Z,100015.28
2023-07-26T11:41:21.688Z,100012.91
2023-07-26T11:44:00.759Z,100015.28
2023-07-26T11:46:30.144Z,100014.97
2023-07-26T11:48:58.092Z,100007.25
2023-07-26T11:51:25.836Z,100004.19
2023-07-26T11:53:56.849Z,100008.81
2023-07-26T11:56:31.000Z,100004.34
2023-07-26T11:59:02.419Z,99993.22
2023-07-26T12:01:30.921Z,100003.31
2023-07-26T12:03:58.659Z,100013.44
2023-07-26T12:06:31.532Z,100012.41
2023-07-26T12:09:12.376Z,100010.16
2023-07-26T12:11:50.289Z,100010.69
2023-07-26T12:14:21.138Z,100009.31
2023-07-26T12:16:53.727Z,100019.91
2023-07-26T12:19:25.848Z,100020.09
2023-07-26T12:21:53.778Z,100014.09
2023-07-26T12:24:21.562Z,100019.22
2023-07-26T12:26:50.440Z,100026.91
2023-07-26T12:29:18.235Z,100015.94
2023-07-26T12:31:47.628Z,100012.06
2023-07-26T12:34:22.639Z,100015.94
2023-07-26T12:36:52.050Z,100007.59
2023-07-26T12:39:22.951Z,100011.31
2023-07-26T12:41:50.748Z,100012.19
2023-07-26T12:44:19.165Z,100019.25
2023-07-26T12:49:19.579Z,100016.16
2023-07-26T12:51:50.003Z,100014.06
2023-07-26T12:54:18.266Z,100000.56
2023-07-26T12:56:46.001Z,100001.25
2023-07-26T12:59:13.797Z,100006.06
2023-07-26T13:01:42.245Z,100012.56
2023-07-26T13:04:10.670Z,100014.75
2023-07-26T13:06:50.716Z,100027.13
2023-07-26T13:09:18.605Z,100008.63
2023-07-26T13:11:46.237Z,100020.41
2023-07-26T13:14:13.908Z,100015.94
2023-07-26T13:16:41.995Z,100018.19
2023-07-26T13:19:10.364Z,100016.00
2023-07-26T13:21:37.876Z,100020.25
2023-07-26T13:24:06.014Z,100032.38
2023-07-26T13:26:33.846Z,100020.75
2023-07-26T13:29:02.380Z,100020.56
2023-07-26T13:31:30.168Z,100006.25
2023-07-26T13:33:57.822Z,100018.19
2023-07-26T13:36:25.764Z,100024.38
2023-07-26T13:38:53.808Z,100033.44
2023-07-26T13:41:21.548Z,100021.28
2023-07-26T13:43:49.338Z,100023.16
2023-07-26T13:46:33.769Z,100020.06
2023-07-26T13:49:04.912Z,100021.47
2023-07-26T13:51:33.280Z,100007.91
2023-07-26T13:54:02.053Z,100010.84
2023-07-26T13:56:30.214Z,100018.19
2023-07-26T13:58:57.828Z,100005.19
2023-07-26T14:01:27.571Z,100013.94
2023-07-26T14:03:55.372Z,100007.06
2023-07-26T14:06:25.995Z,100016.13
2023-07-26T14:08:53.833Z,99994.25
2023-07-26T14:11:21.684Z,100008.63
2023-07-26T14:13:50.426Z,100000.22
2023-07-26T14:16:22.978Z,100003.00
2023-07-26T14:18:54.441Z,99991.19
2023-07-26T14:21:22.227Z,100013.41
2023-07-26T14:23:49.865Z,100006.56
2023-07-26T14:26:17.513Z,100005.34
2023-07-26T14:28:45.120Z,100001.28
2023-07-26T14:31:12.883Z,100001.28
2023-07-26T14:33:40.544Z,99999.56
2023-07-26T14:36:08.279Z,100005.72
2023-07-26T14:38:36.100Z,100002.97
2023-07-26T14:41:03.727Z,99985.69
2023-07-26T14:43:31.232Z,99990.50
2023-07-26T14:45:58.967Z,99996.28
2023-07-26T14:48:26.544Z,99985.16
2023-07-26T14:50:55.326Z,99990.81
2023-07-26T14:53:26.810Z,99985.50
2023-07-26T14:55:54.499Z,99971.13
2023-07-26T14:58:22.112Z,99984.97
2023-07-26T15:00:49.753Z,99979.84
2023-07-26T15:03:17.475Z,99980.53
2023-07-26T15:05:47.126Z,99975.75
2023-07-26T15:08:15.064Z,99979.19
2023-07-26T15:10:42.800Z,99974.88
2023-07-26T15:13:11.873Z,99970.78
2023-07-26T15:15:45.525Z,99968.91
2023-07-26T15:18:14.733Z,99973.53
2023-07-26T15:20:45.114Z,99996.78
2023-07-26T15:23:13.112Z,99979.34
2023-07-26T15:25:41.203Z,99983.13
2023-07-26T15:28:09.676Z,99981.06
2023-07-26T15:30:38.032Z,99980.56
2023-07-26T15:33:06.627Z,99987.22
2023-07-26T15:35:38.334Z,99983.31
2023-07-26T15:38:07.236Z,99991.16
2023-07-26T15:40:49.497Z,99993.19
2023-07-26T15:48:18.956Z,99987.56
2023-07-26T15:53:17.364Z,99990.47
2023-07-26T15:55:45.169Z,99992.53
2023-07-26T15:58:12.750Z,99994.41
2023-07-26T16:00:40.519Z,99986.03
2023-07-26T16:03:08.215Z,99978.69
2023-07-26T16:10:37.408Z,99987.41
2023-07-26T16:13:05.166Z,99982.28
2023-07-26T16:20:34.065Z,99970.28
2023-07-26T16:23:01.685Z,99980.91
2023-07-26T16:25:29.372Z,99978.50
2023-07-26T16:27:57.053Z,99985.03
2023-07-26T16:30:25.043Z,99975.94
2023-07-26T16:32:52.808Z,99979.91
2023-07-26T16:35:20.709Z,99986.91
2023-07-26T16:37:58.903Z,99992.19
2023-07-26T16:40:31.621Z,99994.75
2023-07-26T16:43:01.669Z,99979.03
2023-07-26T16:45:31.689Z,99989.13
2023-07-26T16:48:01.549Z,99986.03
2023-07-26T16:50:29.329Z,99989.63
2023-07-26T16:52:57.137Z,99999.91
2023-07-26T16:55:24.916Z,100001.78
2023-07-26T16:57:52.726Z,100021.44
2023-07-26T17:00:20.477Z,100012.91
2023-07-26T17:02:48.452Z,100011.69
2023-07-26T17:05:16.726Z,100024.16
2023-07-26T17:07:44.305Z,100024.03
2023-07-26T17:10:12.028Z,100025.38
2023-07-26T17:12:42.575Z,100017.66
2023-07-26T17:15:10.883Z,100026.41
2023-07-26T17:17:38.578Z,100024.28
2023-07-26T17:20:07.187Z,100022.94
2023-07-26T17:22:34.995Z,100020.84
2023-07-26T17:25:02.989Z,100024.44
2023-07-26T17:27:30.807Z,100032.81
2023-07-26T17:29:58.666Z,100037.41
2023-07-26T17:32:26.540Z,100038.44
2023-07-26T17:34:54.160Z,100036.41
2023-07-26T17:37:21.873Z,100046.31
2023-07-26T17:39:52.365Z,100050.06
2023-07-26T17:42:20.066Z,100053.66
2023-07-26T17:44:48.505Z,100061.16
2023-07-26T17:47:16.323Z,100063.84
2023-07-26T17:49:45.243Z,100066.03
2023-07-26T17:52:12.973Z,100091.19
2023-07-26T17:54:40.639Z,100075.06
2023-07-26T17:57:08.385Z,100079.69
2023-07-26T17:59:39.472Z,100090.03
2023-07-26T18:02:07.598Z,100089.84
2023-07-26T18:04:35.444Z,100100.94
2023-07-26T18:07:03.142Z,100101.94
2023-07-26T18:09:31.449Z,100102.13
2023-07-26T18:11:59.086Z,100086.84
2023-07-26T18:14:28.462Z,100106.16
2023-07-26T18:16:56.197Z,100105.47
2023-07-26T18:19:23.857Z,100105.22
2023-07-26T18:21:51.519Z,100104.00
2023-07-26T18:24:19.208Z,100102.78
2023-07-26T18:26:47.310Z,100114.16
2023-07-26T18:29:17.514Z,100119.44
2023-07-26T18:31:45.333Z,100109.41
2023-07-26T18:34:13.230Z,100107.84
2023-07-26T18:36:40.818Z,100112.75
2023-07-26T18:39:08.331Z,100114.28
2023-07-26T18:41:35.948Z,100127.03
2023-07-26T18:44:03.893Z,100124.31
2023-07-26T18:46:31.483Z,100130.25
2023-07-26T18:48:59.108Z,100132.59
2023-07-26T18:51:26.564Z,100127.59
2023-07-26T18:53:54.124Z,100139.22
2023-07-26T18:56:21.668Z,100135.63
2023-07-26T18:58:49.272Z,100143.28
2023-07-26T19:01:17.036Z,100143.56
2023-07-26T19:03:44.621Z,100155.38
2023-07-26T19:06:12.278Z,100153.63
2023-07-26T19:08:39.974Z,100159.25
2023-07-26T19:11:07.570Z,100163.31
2023-07-26T19:13:35.008Z,100164.50
2023-07-26T19:16:02.607Z,100163.41
2023-07-26T19:18:30.054Z,100188.28
2023-07-26T19:21:01.871Z,100185.75
2023-07-26T19:23:29.749Z,100194.38
2023-07-26T19:25:57.231Z,100196.19
2023-07-26T19:28:24.822Z,100203.25
2023-07-26T19:30:52.404Z,100201.97
2023-07-26T19:33:20.134Z,100203.69
2023-07-26T19:35:57.964Z,100212.91
2023-07-26T19:38:27.051Z,100219.84
2023-07-26T19:41:05.257Z,100232.31
2023-07-26T19:43:33.661Z,100238.59
2023-07-26T19:46:02.412Z,100234.03
2023-07-26T19:48:30.150Z,100238.34
2023-07-26T19:50:58.939Z,100245.66
2023-07-26T19:53:28.388Z,100240.81
2023-07-26T19:55:55.927Z,100267.50
2023-07-26T19:58:23.549Z,100275.22
2023-07-26T20:00:51.182Z,100272.50
2023-07-26T20:03:18.698Z,100278.78
2023-07-26T20:05:50.608Z,100286.53
2023-07-26T20:08:18.262Z,100291.78
2023-07-26T20:10:46.172Z,100294.91
2023-07-26T20:13:14.221Z,100297.16
2023-07-26T20:15:41.951Z,100314.97
2023-07-26T20:18:10.152Z,100313.88
2023-07-26T20:20:38.169Z,100315.78
2023-07-26T20:23:06.549Z,100322.97
2023-07-26T20:25:35.347Z,100328.28
2023-07-26T20:28:02.915Z,100323.56
2023-07-26T20:30:30.632Z,100344.22
2023-07-26T20:32:58.940Z,100341.63
2023-07-26T20:35:26.637Z,100339.72
2023-07-26T20:37:54.999Z,100337.50
2023-07-26T20:40:22.666Z,100347.75
2023-07-26T20:45:17.854Z,100355.91
2023-07-26T20:47:45.578Z,100346.19
2023-07-26T20:50:13.350Z,100351.72
2023-07-26T20:52:41.102Z,100361.94
2023-07-26T20:55:09.133Z,100373.31
2023-07-26T20:57:36.858Z,100362.09
2023-07-26T21:00:05.632Z,100365.28
2023-07-26T21:02:33.410Z,100367.88
2023-07-26T21:05:01.693Z,100391.66
2023-07-26T21:07:29.700Z,100408.19
2023-07-26T21:09:57.628Z,100400.78
2023-07-26T21:12:25.355Z,100411.50
2023-07-26T21:14:53.240Z,100405.47
2023-07-26T21:17:21.012Z,100413.75
2023-07-26T21:19:48.866Z,100420.41
2023-07-26T21:22:16.557Z,100413.22
2023-07-26T21:24:44.296Z,100416.69
2023-07-26T21:27:11.950Z,100431.00
2023-07-26T21:29:39.620Z,100432.47
2023-07-26T21:32:07.941Z,100419.94
2023-07-26T21:34:35.690Z,100438.56
2023-07-26T21:37:03.523Z,100438.41
2023-07-26T21:39:31.134Z,100454.56
2023-07-26T21:41:58.772Z,100453.31
2023-07-26T21:44:29.775Z,100458.91
2023-07-26T21:46:57.778Z,100473.78
2023-07-26T21:49:25.318Z,100473.41
2023-07-26T21:51:52.985Z,100479.94
2023-07-26T21:54:20.593Z,100481.91
2023-07-26T21:56:48.235Z,100497.81
2023-07-26T21:59:15.789Z,100482.97
2023-07-26T22:01:45.217Z,100487.91
2023-07-26T22:04:13.105Z,100482.84
2023-07-26T22:06:40.796Z,100490.09
2023-07-26T22:09:08.339Z,100480.72
2023-07-26T22:11:36.113Z,100488.81
2023-07-26T22:14:04.039Z,100498.22
2023-07-26T22:16:32.163Z,100505.31
2023-07-26T22:18:59.918Z,100502.06
2023-07-26T22:21:27.574Z,100505.31
2023-07-26T22:23:55.858Z,100516.88
2023-07-26T22:26:23.781Z,100509.81
2023-07-26T22:28:51.425Z,100521.09
2023-07-26T22:31:19.365Z,100519.72
2023-07-26T22:33:46.887Z,100520.84
2023-07-26T22:36:14.318Z,100519.97
2023-07-26T22:38:42.014Z,100525.31
2023-07-26T22:41:10.225Z,100527.56
2023-07-26T22:43:37.721Z,100523.94
2023-07-26T22:46:05.860Z,100535.66
2023-07-26T22:48:33.449Z,100532.59
2023-07-26T22:51:00.930Z,100528.66
2023-07-26T22:53:28.503Z,100527.94
2023-07-26T22:55:56.471Z,100551.03
2023-07-26T22:58:23.964Z,100531.50
2023-07-26T23:00:59.165Z,100547.69
2023-07-26T23:03:26.945Z,100546.16
2023-07-26T23:05:59.014Z,100546.69
2023-07-26T23:08:27.570Z,100550.34
2023-07-26T23:10:59.843Z,100551.44
2023-07-26T23:13:28.666Z,100559.59
2023-07-26T23:15:58.445Z,100556.34
2023-07-26T23:18:26.789Z,100556.22
2023-07-26T23:20:54.603Z,100555.97
2023-07-26T23:23:23.663Z,100552.00
2023-07-26T23:25:51.506Z,100552.31
2023-07-26T23:28:19.037Z,100557.63
2023-07-26T23:30:47.892Z,100553.06
2023-07-26T23:33:16.803Z,100557.97
2023-07-26T23:35:45.600Z,100565.00
2023-07-26T23:38:13.904Z,100553.38
2023-07-26T23:40:41.782Z,100568.38
2023-07-26T23:43:10.874Z,100573.00
2023-07-26T23:45:38.576Z,100584.50
2023-07-26T23:48:06.302Z,100582.22
2023-07-26T23:50:33.711Z,100581.59
2023-07-26T23:53:01.094Z,100583.78
2023-07-26T23:55:28.605Z,100583.13
2023-07-26T23:57:56.162Z,100583.22
